aviador You're here:

KSTP Decoded Metar

ST. PAUL in MN, USA
Report Time2018-01-20 04:53:00
UTC Time2018-01-20 05:06:06
Flight Rules vfr VFR
WindCalm
Visibility9999 m
Phenomena:N/A
Clouds:N/A
CeilingNone
Temp-2°C (ISA -16)
Dew Point-2°C (100% RH)
AAT-4.3°C
QNH1005 hPa
Density Alt-840 ft
Elevation719 ft
Report Wrong Elevation
Raw Report
METAR KSTP 200453Z AUTO 00000KT 10SM CLR M02/M02 A2969 RMK AO2 SLP059
T10221022=

Extra information for KSTP:More info

Metar Taf Metar & Taf Last 4 Metars F.Rules Stats Wind Profile Meteogram Temp Stats Airport Information Weather charts Add Link Nearby VenuesMetar ALERT Operation Metar Decoded Social comments

AIRNAV info for KSTP